sensor_id;sensor_type;location;lat;lon;timestamp;pressure;altitude;pressure_sealevel;temperature;humidity
34370;BME280;20635;55.812;37.560;2023-09-19T00:00:23;100007.75;;;22.77;60.58
34370;BME280;20635;55.812;37.560;2023-09-19T00:02:55;100014.19;;;22.78;60.48
34370;BME280;20635;55.812;37.560;2023-09-19T00:05:25;100009.72;;;22.77;60.44
34370;BME280;20635;55.812;37.560;2023-09-19T00:07:56;100016.16;;;22.77;60.36
34370;BME280;20635;55.812;37.560;2023-09-19T00:10:28;100014.72;;;22.80;60.53
34370;BME280;20635;55.812;37.560;2023-09-19T00:12:59;100014.19;;;22.78;60.59
34370;BME280;20635;55.812;37.560;2023-09-19T00:15:27;100012.53;;;22.77;60.38
34370;BME280;20635;55.812;37.560;2023-09-19T00:17:56;100017.28;;;22.76;60.27
34370;BME280;20635;55.812;37.560;2023-09-19T00:20:23;100020.59;;;22.78;60.19
34370;BME280;20635;55.812;37.560;2023-09-19T00:22:50;100012.53;;;22.77;60.53
34370;BME280;20635;55.812;37.560;2023-09-19T00:25:20;100012.53;;;22.77;60.46
34370;BME280;20635;55.812;37.560;2023-09-19T00:27:47;100011.38;;;22.78;60.40
34370;BME280;20635;55.812;37.560;2023-09-19T00:30:13;100007.75;;;22.77;60.43
34370;BME280;20635;55.812;37.560;2023-09-19T00:32:46;100009.41;;;22.78;60.44
34370;BME280;20635;55.812;37.560;2023-09-19T00:35:16;100006.63;;;22.78;60.28
34370;BME280;20635;55.812;37.560;2023-09-19T00:37:42;100008.91;;;22.76;60.25
34370;BME280;20635;55.812;37.560;2023-09-19T00:40:10;100016.97;;;22.78;60.33
34370;BME280;20635;55.812;37.560;2023-09-19T00:42:45;100009.41;;;22.78;60.56
34370;BME280;20635;55.812;37.560;2023-09-19T00:45:13;100009.72;;;22.77;60.29
34370;BME280;20635;55.812;37.560;2023-09-19T00:47:44;100014.50;;;22.76;60.42
34370;BME280;20635;55.812;37.560;2023-09-19T00:50:11;100010.00;;;22.75;60.45
34370;BME280;20635;55.812;37.560;2023-09-19T00:52:42;100016.16;;;22.77;60.41
34370;BME280;20635;55.812;37.560;2023-09-19T00:55:09;99999.69;;;22.76;60.61
34370;BME280;20635;55.812;37.560;2023-09-19T00:57:36;100007.53;;;22.74;60.66
34370;BME280;20635;55.812;37.560;2023-09-19T01:00:05;100015.59;;;22.75;60.26
34370;BME280;20635;55.812;37.560;2023-09-19T01:02:34;100019.25;;;22.76;60.41
34370;BME280;20635;55.812;37.560;2023-09-19T01:05:00;100013.66;;;22.76;60.18
34370;BME280;20635;55.812;37.560;2023-09-19T01:07:27;100015.31;;;22.77;60.58
34370;BME280;20635;55.812;37.560;2023-09-19T01:10:05;100011.69;;;22.76;60.57
34370;BME280;20635;55.812;37.560;2023-09-19T01:26:02;100007.75;;;22.77;60.40
34370;BME280;20635;55.812;37.560;2023-09-19T01:31:33;99991.59;;;22.74;60.55
34370;BME280;20635;55.812;37.560;2023-09-19T01:34:02;100000.81;;;22.75;60.51
34370;BME280;20635;55.812;37.560;2023-09-19T01:36:35;100010.34;;;22.74;60.37
34370;BME280;20635;55.812;37.560;2023-09-19T01:39:07;100001.94;;;22.74;60.26
34370;BME280;20635;55.812;37.560;2023-09-19T01:44:09;99993.56;;;22.74;60.55
34370;BME280;20635;55.812;37.560;2023-09-19T01:46:41;99997.19;;;22.74;60.76
34370;BME280;20635;55.812;37.560;2023-09-19T01:49:32;99993.56;;;22.74;60.58
34370;BME280;20635;55.812;37.560;2023-09-19T01:52:05;99988.53;;;22.76;60.29
34370;BME280;20635;55.812;37.560;2023-09-19T01:54:50;99981.78;;;22.77;60.45
34370;BME280;20635;55.812;37.560;2023-09-19T01:57:32;99976.19;;;22.77;60.42
34370;BME280;20635;55.812;37.560;2023-09-19T02:00:10;99977.03;;;22.77;60.40
34370;BME280;20635;55.812;37.560;2023-09-19T02:02:44;99983.22;;;22.74;60.32
34370;BME280;20635;55.812;37.560;2023-09-19T02:05:11;99971.22;;;22.74;60.53
34370;BME280;20635;55.812;37.560;2023-09-19T02:07:38;99973.19;;;22.73;60.44
34370;BME280;20635;55.812;37.560;2023-09-19T02:10:05;99966.47;;;22.74;60.28
34370;BME280;20635;55.812;37.560;2023-09-19T02:12:32;99966.47;;;22.74;60.56
34370;BME280;20635;55.812;37.560;2023-09-19T02:15:03;99968.44;;;22.74;60.47
34370;BME280;20635;55.812;37.560;2023-09-19T02:17:30;99954.44;;;22.74;60.28
34370;BME280;20635;55.812;37.560;2023-09-19T02:19:56;99953.63;;;22.73;60.77
34370;BME280;20635;55.812;37.560;2023-09-19T02:22:24;99952.81;;;22.73;60.64
34370;BME280;20635;55.812;37.560;2023-09-19T02:24:52;99953.31;;;22.75;60.32
34370;BME280;20635;55.812;37.560;2023-09-19T02:27:19;99954.44;;;22.74;60.44
34370;BME280;20635;55.812;37.560;2023-09-19T02:29:45;99951.66;;;22.74;60.40
34370;BME280;20635;55.812;37.560;2023-09-19T02:32:11;99955.28;;;22.74;60.77
34370;BME280;20635;55.812;37.560;2023-09-19T02:34:37;99951.34;;;22.75;60.45
34370;BME280;20635;55.812;37.560;2023-09-19T02:37:07;99951.34;;;22.75;60.46
34370;BME280;20635;55.812;37.560;2023-09-19T02:39:34;99948.53;;;22.75;60.78
34370;BME280;20635;55.812;37.560;2023-09-19T02:42:01;99948.03;;;22.73;60.73
34370;BME280;20635;55.812;37.560;2023-09-19T02:44:27;99951.66;;;22.74;60.87
34370;BME280;20635;55.812;37.560;2023-09-19T02:46:53;99936.03;;;22.73;60.81
34370;BME280;20635;55.812;37.560;2023-09-19T02:49:19;99943.28;;;22.74;61.24
34370;BME280;20635;55.812;37.560;2023-09-19T02:51:44;99943.28;;;22.74;61.25
34370;BME280;20635;55.812;37.560;2023-09-19T02:54:11;99947.22;;;22.73;61.19
34370;BME280;20635;55.812;37.560;2023-09-19T02:56:37;99960.03;;;22.74;61.19
34370;BME280;20635;55.812;37.560;2023-09-19T02:59:03;99952.81;;;22.73;60.90
34370;BME280;20635;55.812;37.560;2023-09-19T03:01:29;99958.41;;;22.73;60.74
34370;BME280;20635;55.812;37.560;2023-09-19T03:03:55;99951.97;;;22.72;60.78
34370;BME280;20635;55.812;37.560;2023-09-19T03:06:22;99951.66;;;22.74;60.80
34370;BME280;20635;55.812;37.560;2023-09-19T03:08:49;99946.41;;;22.72;60.75
34370;BME280;20635;55.812;37.560;2023-09-19T03:11:18;99956.75;;;22.72;60.59
34370;BME280;20635;55.812;37.560;2023-09-19T03:13:52;99958.41;;;22.73;60.43
34370;BME280;20635;55.812;37.560;2023-09-19T03:16:19;99956.22;;;22.70;60.28
34370;BME280;20635;55.812;37.560;2023-09-19T03:18:49;99960.66;;;22.71;60.28
34370;BME280;20635;55.812;37.560;2023-09-19T03:21:16;99959.81;;;22.70;60.19
34370;BME280;20635;55.812;37.560;2023-09-19T03:23:43;99959.31;;;22.68;60.18
34370;BME280;20635;55.812;37.560;2023-09-19T03:26:13;99960.16;;;22.69;60.33
34370;BME280;20635;55.812;37.560;2023-09-19T03:28:40;99964.09;;;22.68;60.37
34370;BME280;20635;55.812;37.560;2023-09-19T03:31:07;99954.06;;;22.67;60.26
34370;BME280;20635;55.812;37.560;2023-09-19T03:33:35;99954.88;;;22.67;60.13
34370;BME280;20635;55.812;37.560;2023-09-19T03:36:02;99960.47;;;22.67;60.28
34370;BME280;20635;55.812;37.560;2023-09-19T03:38:32;99951.25;;;22.67;59.89
34370;BME280;20635;55.812;37.560;2023-09-19T03:41:00;99952.38;;;22.66;59.16
34370;BME280;20635;55.812;37.560;2023-09-19T03:43:29;99954.06;;;22.67;58.85
34370;BME280;20635;55.812;37.560;2023-09-19T03:46:01;99962.63;;;22.70;58.56
34370;BME280;20635;55.812;37.560;2023-09-19T03:48:28;99952.59;;;22.69;59.00
34370;BME280;20635;55.812;37.560;2023-09-19T03:50:56;99959.00;;;22.70;58.58
34370;BME280;20635;55.812;37.560;2023-09-19T03:53:22;99948.66;;;22.70;58.62
34370;BME280;20635;55.812;37.560;2023-09-19T03:55:48;99949.47;;;22.71;58.58
34370;BME280;20635;55.812;37.560;2023-09-19T03:58:16;99951.44;;;22.70;58.55
34370;BME280;20635;55.812;37.560;2023-09-19T04:00:42;99947.81;;;22.70;59.19
34370;BME280;20635;55.812;37.560;2023-09-19T04:03:08;99948.38;;;22.72;58.94
34370;BME280;20635;55.812;37.560;2023-09-19T04:05:34;99951.44;;;22.70;58.83
34370;BME280;20635;55.812;37.560;2023-09-19T04:08:00;99942.78;;;22.72;58.86
34370;BME280;20635;55.812;37.560;2023-09-19T04:10:26;99949.47;;;22.71;58.60
34370;BME280;20635;55.812;37.560;2023-09-19T04:12:55;99948.66;;;22.70;58.56
34370;BME280;20635;55.812;37.560;2023-09-19T04:15:22;99944.75;;;22.71;58.15
34370;BME280;20635;55.812;37.560;2023-09-19T04:17:49;99937.47;;;22.70;58.41
34370;BME280;20635;55.812;37.560;2023-09-19T04:20:19;99933.84;;;22.70;58.37
34370;BME280;20635;55.812;37.560;2023-09-19T04:22:46;99927.44;;;22.69;57.75
34370;BME280;20635;55.812;37.560;2023-09-19T04:25:14;99929.91;;;22.71;57.90
34370;BME280;20635;55.812;37.560;2023-09-19T04:27:40;99920.72;;;22.70;57.87
34370;BME280;20635;55.812;37.560;2023-09-19T04:30:07;99925.47;;;22.70;57.98
34370;BME280;20635;55.812;37.560;2023-09-19T04:32:38;99927.75;;;22.68;57.62
34370;BME280;20635;55.812;37.560;2023-09-19T04:35:09;99923.81;;;22.69;58.09
34370;BME280;20635;55.812;37.560;2023-09-19T04:37:39;99921.84;;;22.69;57.93
34370;BME280;20635;55.812;37.560;2023-09-19T04:40:09;99918.25;;;22.69;57.78
34370;BME280;20635;55.812;37.560;2023-09-19T04:42:43;99923.00;;;22.68;57.61
34370;BME280;20635;55.812;37.560;2023-09-19T04:45:10;99921.34;;;22.67;57.73
34370;BME280;20635;55.812;37.560;2023-09-19T04:47:37;99919.66;;;22.66;57.44
34370;BME280;20635;55.812;37.560;2023-09-19T04:50:08;99921.63;;;22.66;57.45
34370;BME280;20635;55.812;37.560;2023-09-19T04:52:41;99923.59;;;22.65;57.48
34370;BME280;20635;55.812;37.560;2023-09-19T04:55:11;99924.75;;;22.64;57.51
34370;BME280;20635;55.812;37.560;2023-09-19T04:57:46;99922.78;;;22.65;57.16
34370;BME280;20635;55.812;37.560;2023-09-19T05:00:16;99928.69;;;22.63;57.61
34370;BME280;20635;55.812;37.560;2023-09-19T05:02:45;99933.44;;;22.63;57.38
34370;BME280;20635;55.812;37.560;2023-09-19T05:05:11;99928.97;;;22.62;57.35
34370;BME280;20635;55.812;37.560;2023-09-19T05:07:40;99920.59;;;22.62;57.08
34370;BME280;20635;55.812;37.560;2023-09-19T05:10:07;99917.81;;;22.62;57.28
34370;BME280;20635;55.812;37.560;2023-09-19T05:12:34;99916.97;;;22.61;57.59
34370;BME280;20635;55.812;37.560;2023-09-19T05:15:04;99908.59;;;22.61;57.10
34370;BME280;20635;55.812;37.560;2023-09-19T05:17:33;99906.13;;;22.60;56.97
34370;BME280;20635;55.812;37.560;2023-09-19T05:19:59;99910.88;;;22.59;57.35
34370;BME280;20635;55.812;37.560;2023-09-19T05:22:31;99910.56;;;22.61;56.96
34370;BME280;20635;55.812;37.560;2023-09-19T05:24:58;99910.88;;;22.59;56.85
34370;BME280;20635;55.812;37.560;2023-09-19T05:27:25;99910.88;;;22.59;57.22
34370;BME280;20635;55.812;37.560;2023-09-19T05:29:51;99904.47;;;22.59;57.00
34370;BME280;20635;55.812;37.560;2023-09-19T05:32:18;99904.75;;;22.57;57.17
34370;BME280;20635;55.812;37.560;2023-09-19T05:34:46;99914.81;;;22.58;57.22
34370;BME280;20635;55.812;37.560;2023-09-19T05:37:13;99902.81;;;22.58;56.94
34370;BME280;20635;55.812;37.560;2023-09-19T05:39:39;99904.75;;;22.57;57.29
34370;BME280;20635;55.812;37.560;2023-09-19T05:42:05;99909.53;;;22.57;56.94
34370;BME280;20635;55.812;37.560;2023-09-19T05:44:33;99909.53;;;22.57;56.98
34370;BME280;20635;55.812;37.560;2023-09-19T05:46:59;99904.75;;;22.57;57.00
34370;BME280;20635;55.812;37.560;2023-09-19T05:49:25;99908.69;;;22.56;56.69
34370;BME280;20635;55.812;37.560;2023-09-19T05:51:52;99901.47;;;22.55;57.01
34370;BME280;20635;55.812;37.560;2023-09-19T05:54:20;99900.31;;;22.56;57.08
34370;BME280;20635;55.812;37.560;2023-09-19T05:56:46;99898.69;;;22.55;56.99
34370;BME280;20635;55.812;37.560;2023-09-19T05:59:13;99893.41;;;22.53;56.75
34370;BME280;20635;55.812;37.560;2023-09-19T06:01:42;99898.69;;;22.55;56.96
34370;BME280;20635;55.812;37.560;2023-09-19T06:04:08;99891.44;;;22.54;56.98
34370;BME280;20635;55.812;37.560;2023-09-19T06:06:34;99897.03;;;22.54;56.79
34370;BME280;20635;55.812;37.560;2023-09-19T06:09:04;99899.00;;;22.53;57.02
34370;BME280;20635;55.812;37.560;2023-09-19T06:11:35;99904.56;;;22.53;56.55
34370;BME280;20635;55.812;37.560;2023-09-19T06:14:01;99900.97;;;22.53;56.93
34370;BME280;20635;55.812;37.560;2023-09-19T06:16:28;99895.38;;;22.53;56.79
34370;BME280;20635;55.812;37.560;2023-09-19T06:18:55;99896.19;;;22.53;56.62
34370;BME280;20635;55.812;37.560;2023-09-19T06:21:24;99891.72;;;22.52;56.82
34370;BME280;20635;55.812;37.560;2023-09-19T06:23:50;99887.28;;;22.51;56.61
34370;BME280;20635;55.812;37.560;2023-09-19T06:26:16;99882.53;;;22.52;56.75
34370;BME280;20635;55.812;37.560;2023-09-19T06:28:43;99884.50;;;22.51;56.83
34370;BME280;20635;55.812;37.560;2023-09-19T06:31:10;99889.78;;;22.53;56.66
34370;BME280;20635;55.812;37.560;2023-09-19T06:33:37;99882.53;;;22.52;56.92
34370;BME280;20635;55.812;37.560;2023-09-19T06:36:06;99883.66;;;22.51;56.75
34370;BME280;20635;55.812;37.560;2023-09-19T06:38:32;99882.53;;;22.52;56.80
34370;BME280;20635;55.812;37.560;2023-09-19T06:41:02;99872.19;;;22.52;56.71
34370;BME280;20635;55.812;37.560;2023-09-19T06:43:32;99881.69;;;22.51;56.50
34370;BME280;20635;55.812;37.560;2023-09-19T06:46:02;99887.28;;;22.51;56.64
34370;BME280;20635;55.812;37.560;2023-09-19T06:48:29;99894.00;;;22.50;56.96
34370;BME280;20635;55.812;37.560;2023-09-19T06:50:58;99902.06;;;22.52;56.96
34370;BME280;20635;55.812;37.560;2023-09-19T06:53:27;99900.44;;;22.51;56.79
34370;BME280;20635;55.812;37.560;2023-09-19T06:55:53;99894.00;;;22.50;56.57
34370;BME280;20635;55.812;37.560;2023-09-19T06:58:19;99891.22;;;22.50;56.67
34370;BME280;20635;55.812;37.560;2023-09-19T07:00:46;99882.00;;;22.50;56.76
34370;BME280;20635;55.812;37.560;2023-09-19T07:03:13;99884.81;;;22.50;56.95
34370;BME280;20635;55.812;37.560;2023-09-19T07:05:40;99880.06;;;22.50;56.93
34370;BME280;20635;55.812;37.560;2023-09-19T07:08:10;99878.91;;;22.51;56.92
34370;BME280;20635;55.812;37.560;2023-09-19T07:10:38;99876.44;;;22.50;56.62
34370;BME280;20635;55.812;37.560;2023-09-19T07:13:07;99875.28;;;22.51;56.52
34370;BME280;20635;55.812;37.560;2023-09-19T07:15:37;99879.22;;;22.50;56.82
34370;BME280;20635;55.812;37.560;2023-09-19T07:18:06;99884.81;;;22.50;56.79
34370;BME280;20635;55.812;37.560;2023-09-19T07:20:32;99880.06;;;22.50;56.53
34370;BME280;20635;55.812;37.560;2023-09-19T07:22:59;99876.44;;;22.50;56.60
34370;BME280;20635;55.812;37.560;2023-09-19T07:25:29;99878.41;;;22.49;56.88
34370;BME280;20635;55.812;37.560;2023-09-19T07:27:56;99876.75;;;22.48;56.58
34370;BME280;20635;55.812;37.560;2023-09-19T07:30:26;99883.97;;;22.49;56.66
34370;BME280;20635;55.812;37.560;2023-09-19T07:32:52;99880.06;;;22.50;56.87
34370;BME280;20635;55.812;37.560;2023-09-19T07:35:18;99873.63;;;22.50;56.50
34370;BME280;20635;55.812;37.560;2023-09-19T07:37:46;99864.44;;;22.49;56.54
34370;BME280;20635;55.812;37.560;2023-09-19T07:40:16;99867.22;;;22.49;56.54
34370;BME280;20635;55.812;37.560;2023-09-19T07:42:42;99858.03;;;22.49;56.49
34370;BME280;20635;55.812;37.560;2023-09-19T07:45:10;99861.66;;;22.49;56.79
34370;BME280;20635;55.812;37.560;2023-09-19T07:47:49;99857.38;;;22.52;56.67
34370;BME280;20635;55.812;37.560;2023-09-19T07:50:16;99858.53;;;22.51;56.85
34370;BME280;20635;55.812;37.560;2023-09-19T07:52:45;99853.25;;;22.49;56.76
34370;BME280;20635;55.812;37.560;2023-09-19T07:55:11;99847.69;;;22.49;56.68
34370;BME280;20635;55.812;37.560;2023-09-19T07:57:41;99855.22;;;22.49;56.82
34370;BME280;20635;55.812;37.560;2023-09-19T08:00:08;99865.25;;;22.50;56.75
34370;BME280;20635;55.812;37.560;2023-09-19T08:02:39;99852.44;;;22.49;56.83
34370;BME280;20635;55.812;37.560;2023-09-19T08:05:06;99846.84;;;22.49;57.02
34370;BME280;20635;55.812;37.560;2023-09-19T08:07:39;99846.53;;;22.50;56.71
34370;BME280;20635;55.812;37.560;2023-09-19T08:10:06;99851.28;;;22.50;56.91
34370;BME280;20635;55.812;37.560;2023-09-19T08:12:41;99837.34;;;22.50;56.56
34370;BME280;20635;55.812;37.560;2023-09-19T08:15:17;99852.94;;;22.51;56.86
34370;BME280;20635;55.812;37.560;2023-09-19T08:17:43;99850.47;;;22.49;56.36
34370;BME280;20635;55.812;37.560;2023-09-19T08:20:10;99842.91;;;22.50;56.72
34370;BME280;20635;55.812;37.560;2023-09-19T08:22:53;99847.91;;;22.53;56.71
34370;BME280;20635;55.812;37.560;2023-09-19T08:25:22;99837.34;;;22.50;56.47
34370;BME280;20635;55.812;37.560;2023-09-19T08:27:49;99844.88;;;22.49;56.66
34370;BME280;20635;55.812;37.560;2023-09-19T08:30:17;99843.25;;;22.48;56.90
34370;BME280;20635;55.812;37.560;2023-09-19T08:33:02;99827.50;;;22.52;56.92
34370;BME280;20635;55.812;37.560;2023-09-19T08:35:30;99823.38;;;22.50;56.82
34370;BME280;20635;55.812;37.560;2023-09-19T08:37:56;99825.34;;;22.49;56.69
34370;BME280;20635;55.812;37.560;2023-09-19T08:40:22;99825.34;;;22.49;56.84
34370;BME280;20635;55.812;37.560;2023-09-19T08:42:53;99825.34;;;22.49;56.49
34370;BME280;20635;55.812;37.560;2023-09-19T08:45:25;99818.59;;;22.50;56.87
34370;BME280;20635;55.812;37.560;2023-09-19T08:48:05;99808.25;;;22.51;56.76
34370;BME280;20635;55.812;37.560;2023-09-19T08:50:43;99810.22;;;22.50;56.77
34370;BME280;20635;55.812;37.560;2023-09-19T08:53:26;99806.63;;;22.50;56.66
34370;BME280;20635;55.812;37.560;2023-09-19T08:55:53;99810.56;;;22.49;56.76
34370;BME280;20635;55.812;37.560;2023-09-19T08:58:25;99806.09;;;22.48;56.66
34370;BME280;20635;55.812;37.560;2023-09-19T09:00:54;99813.34;;;22.49;56.79
34370;BME280;20635;55.812;37.560;2023-09-19T09:03:21;99803.28;;;22.48;56.71
34370;BME280;20635;55.812;37.560;2023-09-19T09:05:50;99806.09;;;22.48;56.78
34370;BME280;20635;55.812;37.560;2023-09-19T09:08:17;99811.66;;;22.48;56.87
34370;BME280;20635;55.812;37.560;2023-09-19T09:10:45;99811.66;;;22.48;56.79
34370;BME280;20635;55.812;37.560;2023-09-19T09:13:12;99815.31;;;22.48;56.97
34370;BME280;20635;55.812;37.560;2023-09-19T09:15:40;99813.63;;;22.47;56.78
34370;BME280;20635;55.812;37.560;2023-09-19T09:18:06;99816.44;;;22.47;56.62
34370;BME280;20635;55.812;37.560;2023-09-19T09:20:32;99808.03;;;22.47;56.56
34370;BME280;20635;55.812;37.560;2023-09-19T09:22:58;99808.38;;;22.46;56.97
34370;BME280;20635;55.812;37.560;2023-09-19T09:25:54;99820.25;;;22.51;56.88
34370;BME280;20635;55.812;37.560;2023-09-19T09:28:25;99822.84;;;22.48;56.91
34370;BME280;20635;55.812;37.560;2023-09-19T09:30:52;99810.84;;;22.47;56.80
34370;BME280;20635;55.812;37.560;2023-09-19T09:33:18;99815.31;;;22.48;56.84
34370;BME280;20635;55.812;37.560;2023-09-19T09:35:52;99809.41;;;22.50;56.67
34370;BME280;20635;55.812;37.560;2023-09-19T09:38:22;99800.22;;;22.49;56.50
34370;BME280;20635;55.812;37.560;2023-09-19T09:40:55;99806.09;;;22.48;56.62
34370;BME280;20635;55.812;37.560;2023-09-19T09:43:34;99801.34;;;22.48;56.96
34370;BME280;20635;55.812;37.560;2023-09-19T09:46:16;99805.47;;;22.51;56.45
34370;BME280;20635;55.812;37.560;2023-09-19T09:51:44;99791.81;;;22.49;56.71
34370;BME280;20635;55.812;37.560;2023-09-19T09:54:24;99790.47;;;22.47;56.76
34370;BME280;20635;55.812;37.560;2023-09-19T09:59:54;99792.66;;;22.50;56.65
34370;BME280;20635;55.812;37.560;2023-09-19T10:02:30;99784.28;;;22.50;56.97
34370;BME280;20635;55.812;37.560;2023-09-19T10:05:13;99775.56;;;22.51;56.63
34370;BME280;20635;55.812;37.560;2023-09-19T10:08:11;99777.22;;;22.52;56.74
34370;BME280;20635;55.812;37.560;2023-09-19T10:10:39;99765.03;;;22.48;56.72
34370;BME280;20635;55.812;37.560;2023-09-19T10:13:09;99775.34;;;22.48;56.66
34370;BME280;20635;55.812;37.560;2023-09-19T10:15:48;99771.13;;;22.50;56.73
34370;BME280;20635;55.812;37.560;2023-09-19T10:18:21;99762.75;;;22.50;56.72
34370;BME280;20635;55.812;37.560;2023-09-19T10:20:48;99765.03;;;22.48;56.77
34370;BME280;20635;55.812;37.560;2023-09-19T10:23:17;99771.13;;;22.50;56.80
34370;BME280;20635;55.812;37.560;2023-09-19T10:25:49;99760.28;;;22.49;56.61
34370;BME280;20635;55.812;37.560;2023-09-19T10:28:17;99761.94;;;22.50;56.74
34370;BME280;20635;55.812;37.560;2023-09-19T10:30:48;99749.28;;;22.52;56.24
34370;BME280;20635;55.812;37.560;2023-09-19T10:33:23;99755.41;;;22.54;56.44
34370;BME280;20635;55.812;37.560;2023-09-19T10:35:53;99742.59;;;22.53;56.33
34370;BME280;20635;55.812;37.560;2023-09-19T10:38:26;99747.53;;;22.57;56.48
34370;BME280;20635;55.812;37.560;2023-09-19T10:40:54;99749.91;;;22.63;56.29
34370;BME280;20635;55.812;37.560;2023-09-19T10:43:21;99741.66;;;22.58;56.26
34370;BME280;20635;55.812;37.560;2023-09-19T10:45:48;99741.66;;;22.58;56.21
34370;BME280;20635;55.812;37.560;2023-09-19T10:48:19;99746.09;;;22.59;56.34
34370;BME280;20635;55.812;37.560;2023-09-19T10:50:49;99736.91;;;22.59;55.82
34370;BME280;20635;55.812;37.560;2023-09-19T10:53:17;99740.84;;;22.58;56.14
34370;BME280;20635;55.812;37.560;2023-09-19T10:56:03;99741.53;;;22.63;56.43
34370;BME280;20635;55.812;37.560;2023-09-19T10:58:35;99738.22;;;22.61;56.15
34370;BME280;20635;55.812;37.560;2023-09-19T11:01:04;99739.03;;;22.62;56.25
34370;BME280;20635;55.812;37.560;2023-09-19T11:03:36;99736.78;;;22.64;56.29
34370;BME280;20635;55.812;37.560;2023-09-19T11:06:16;99740.88;;;22.66;56.16
34370;BME280;20635;55.812;37.560;2023-09-19T11:09:01;99734.19;;;22.67;56.18
34370;BME280;20635;55.812;37.560;2023-09-19T11:30:32;99720.72;;;22.69;56.15
34370;BME280;20635;55.812;37.560;2023-09-19T11:33:19;99709.75;;;22.73;55.90
34370;BME280;20635;55.812;37.560;2023-09-19T11:36:06;99713.97;;;22.70;56.35
34370;BME280;20635;55.812;37.560;2023-09-19T11:41:38;99708.28;;;22.75;56.05
34370;BME280;20635;55.812;37.560;2023-09-19T11:49:29;99699.91;;;22.75;56.13
34370;BME280;20635;55.812;37.560;2023-09-19T11:52:01;99691.03;;;22.73;55.80
34370;BME280;20635;55.812;37.560;2023-09-19T11:54:31;99694.63;;;22.74;55.91
34370;BME280;20635;55.812;37.560;2023-09-19T11:56:59;99699.06;;;22.75;55.78
34370;BME280;20635;55.812;37.560;2023-09-19T11:59:29;99686.78;;;22.76;56.02
34370;BME280;20635;55.812;37.560;2023-09-19T12:02:27;99689.44;;;22.81;56.16
34370;BME280;20635;55.812;37.560;2023-09-19T12:05:00;99674.47;;;22.77;56.27
34370;BME280;20635;55.812;37.560;2023-09-19T12:07:25;99670.53;;;22.78;55.96
34370;BME280;20635;55.812;37.560;2023-09-19T12:10:03;99668.75;;;22.82;56.06
34370;BME280;20635;55.812;37.560;2023-09-19T12:12:30;99663.78;;;22.79;55.99
34370;BME280;20635;55.812;37.560;2023-09-19T12:14:57;99662.97;;;22.78;56.26
34370;BME280;20635;55.812;37.560;2023-09-19T12:17:35;99661.19;;;22.83;56.09
34370;BME280;20635;55.812;37.560;2023-09-19T12:20:01;99651.78;;;22.78;55.97
34370;BME280;20635;55.812;37.560;2023-09-19T12:22:45;99650.84;;;22.83;56.07
34370;BME280;20635;55.812;37.560;2023-09-19T12:25:14;99653.97;;;22.82;55.90
34370;BME280;20635;55.812;37.560;2023-09-19T12:27:43;99647.53;;;22.81;55.64
34370;BME280;20635;55.812;37.560;2023-09-19T12:30:10;99649.19;;;22.82;55.82
34370;BME280;20635;55.812;37.560;2023-09-19T12:32:40;99643.59;;;22.82;56.12
34370;BME280;20635;55.812;37.560;2023-09-19T12:35:06;99644.44;;;22.83;55.81
34370;BME280;20635;55.812;37.560;2023-09-19T12:37:44;99640.69;;;22.87;56.13
34370;BME280;20635;55.812;37.560;2023-09-19T12:40:15;99634.28;;;22.87;55.81
34370;BME280;20635;55.812;37.560;2023-09-19T12:42:49;99635.91;;;22.88;55.78
34370;BME280;20635;55.812;37.560;2023-09-19T12:45:17;99631.72;;;22.90;55.61
34370;BME280;20635;55.812;37.560;2023-09-19T12:48:18;99629.94;;;22.94;55.90
34370;BME280;20635;55.812;37.560;2023-09-19T12:51:01;99628.78;;;22.95;55.84
34370;BME280;20635;55.812;37.560;2023-09-19T12:53:29;99629.09;;;22.94;55.74
34370;BME280;20635;55.812;37.560;2023-09-19T12:55:59;99623.19;;;22.95;55.93
34370;BME280;20635;55.812;37.560;2023-09-19T12:58:25;99620.72;;;22.94;55.82
34370;BME280;20635;55.812;37.560;2023-09-19T13:00:55;99624.84;;;22.96;55.62
34370;BME280;20635;55.812;37.560;2023-09-19T13:06:13;99616.44;;;22.96;55.59
34370;BME280;20635;55.812;37.560;2023-09-19T13:08:42;99607.56;;;22.94;55.93
34370;BME280;20635;55.812;37.560;2023-09-19T13:11:17;99606.91;;;22.97;55.80
34370;BME280;20635;55.812;37.560;2023-09-19T13:22:39;99611.56;;;23.02;55.80
34370;BME280;20635;55.812;37.560;2023-09-19T13:25:07;99607.44;;;22.99;55.65
34370;BME280;20635;55.812;37.560;2023-09-19T13:27:34;99601.03;;;22.99;55.63
34370;BME280;20635;55.812;37.560;2023-09-19T13:29:59;99597.91;;;23.00;55.64
34370;BME280;20635;55.812;37.560;2023-09-19T13:32:26;99590.34;;;23.01;55.44
34370;BME280;20635;55.812;37.560;2023-09-19T13:34:52;99589.53;;;23.00;55.76
34370;BME280;20635;55.812;37.560;2023-09-19T13:37:18;99586.25;;;22.98;55.75
34370;BME280;20635;55.812;37.560;2023-09-19T13:39:44;99586.72;;;23.00;55.60
34370;BME280;20635;55.812;37.560;2023-09-19T13:42:15;99586.72;;;23.00;55.59
34370;BME280;20635;55.812;37.560;2023-09-19T13:44:42;99576.69;;;22.99;55.88
34370;BME280;20635;55.812;37.560;2023-09-19T13:47:09;99583.13;;;23.00;55.86
34370;BME280;20635;55.812;37.560;2023-09-19T13:49:36;99570.28;;;22.99;55.86
34370;BME280;20635;55.812;37.560;2023-09-19T13:52:02;99569.47;;;22.98;56.04
34370;BME280;20635;55.812;37.560;2023-09-19T13:54:33;99571.41;;;22.98;55.81
34370;BME280;20635;55.812;37.560;2023-09-19T13:56:58;99564.69;;;22.99;55.62
34370;BME280;20635;55.812;37.560;2023-09-19T13:59:24;99563.03;;;22.98;55.95
34370;BME280;20635;55.812;37.560;2023-09-19T14:01:50;99561.91;;;22.99;55.88
34370;BME280;20635;55.812;37.560;2023-09-19T14:04:16;99565.81;;;22.98;55.75